createdAt,value
2023-03-13T00:01:21.440Z,17.30
2023-03-13T00:03:48.928Z,17.27
2023-03-13T00:06:16.509Z,17.25
2023-03-13T00:08:45.067Z,17.24
2023-03-13T00:11:13.759Z,17.22
2023-03-13T00:13:41.162Z,17.17
2023-03-13T00:16:14.042Z,17.17
2023-03-13T00:18:47.378Z,17.12
2023-03-13T00:21:14.605Z,17.07
2023-03-13T00:23:41.526Z,17.06
2023-03-13T00:26:10.867Z,17.08
2023-03-13T00:28:39.603Z,17.06
2023-03-13T00:31:18.458Z,17.08
2023-03-13T00:33:47.871Z,17.04
2023-03-13T00:36:19.336Z,17.02
2023-03-13T00:38:46.874Z,17.00
2023-03-13T00:41:22.714Z,16.98
2023-03-13T00:43:50.655Z,16.98
2023-03-13T00:46:20.662Z,16.95
2023-03-13T00:48:48.244Z,16.90
2023-03-13T00:51:16.843Z,16.84
2023-03-13T00:53:45.103Z,16.85
2023-03-13T00:56:14.537Z,16.85
2023-03-13T00:58:43.133Z,16.84
2023-03-13T01:01:18.782Z,16.80
2023-03-13T01:03:48.846Z,16.79
2023-03-13T01:06:18.495Z,16.78
2023-03-13T01:08:45.691Z,16.70
2023-03-13T01:11:18.587Z,16.68
2023-03-13T01:13:45.960Z,16.64
2023-03-13T01:16:19.412Z,16.68
2023-03-13T01:18:52.549Z,16.73
2023-03-13T01:21:21.287Z,16.74
2023-03-13T01:23:49.815Z,16.65
2023-03-13T01:26:16.930Z,16.69
2023-03-13T01:28:44.058Z,16.72
2023-03-13T01:31:13.173Z,16.73
2023-03-13T01:33:40.263Z,16.75
2023-03-13T01:36:08.898Z,16.72
2023-03-13T01:38:36.562Z,16.75
2023-03-13T01:41:07.094Z,16.74
2023-03-13T01:43:36.695Z,16.74
2023-03-13T01:46:20.119Z,16.74
2023-03-13T01:49:00.682Z,16.71
2023-03-13T01:51:35.424Z,16.68
2023-03-13T01:54:11.876Z,16.64
2023-03-13T01:56:53.376Z,16.63
2023-03-13T01:59:27.192Z,16.59
2023-03-13T02:01:57.650Z,16.61
2023-03-13T02:04:27.508Z,16.59
2023-03-13T02:07:02.647Z,16.58
2023-03-13T02:09:32.112Z,16.57
2023-03-13T02:12:07.431Z,16.55
2023-03-13T02:14:37.711Z,16.52
2023-03-13T02:17:05.591Z,16.51
2023-03-13T02:19:49.156Z,16.51
2023-03-13T02:22:41.579Z,16.51
2023-03-13T02:25:11.858Z,16.45
2023-03-13T02:27:39.896Z,16.42
2023-03-13T02:30:09.613Z,16.40
2023-03-13T02:32:37.498Z,16.39
2023-03-13T02:35:19.126Z,16.40
2023-03-13T02:37:51.238Z,16.38
2023-03-13T02:40:29.487Z,16.36
2023-03-13T02:43:00.540Z,16.35
2023-03-13T02:45:28.829Z,16.37
2023-03-13T02:47:55.724Z,16.30
2023-03-13T02:50:23.916Z,16.31
2023-03-13T02:52:56.991Z,16.23
2023-03-13T02:55:30.153Z,16.26
2023-03-13T02:57:57.293Z,16.27
2023-03-13T03:00:27.792Z,16.26
2023-03-13T03:02:58.452Z,16.24
2023-03-13T03:05:25.380Z,16.24
2023-03-13T03:07:52.558Z,16.26
2023-03-13T03:10:19.776Z,16.21
2023-03-13T03:12:46.734Z,16.25
2023-03-13T03:15:14.527Z,16.29
2023-03-13T03:17:45.110Z,16.31
2023-03-13T03:20:12.648Z,16.31
2023-03-13T03:22:42.818Z,16.35
2023-03-13T03:25:10.275Z,16.35
2023-03-13T03:27:37.313Z,16.37
2023-03-13T03:30:08.058Z,16.38
2023-03-13T03:32:40.616Z,16.38
2023-03-13T03:35:08.019Z,16.35
2023-03-13T03:37:35.313Z,16.32
2023-03-13T03:40:06.076Z,16.36
2023-03-13T03:42:33.820Z,16.37
2023-03-13T03:45:00.757Z,16.39
2023-03-13T03:47:27.843Z,16.41
2023-03-13T03:49:54.904Z,16.40
2023-03-13T03:52:22.270Z,16.43
2023-03-13T03:54:49.214Z,16.45
2023-03-13T03:57:17.811Z,16.42
2023-03-13T03:59:46.118Z,16.43
2023-03-13T04:02:13.178Z,16.43
2023-03-13T04:04:41.879Z,16.42
2023-03-13T04:07:12.729Z,16.42
2023-03-13T04:09:40.640Z,16.41
2023-03-13T04:12:09.568Z,16.36
2023-03-13T04:14:42.059Z,16.37
2023-03-13T04:17:11.598Z,16.36
2023-03-13T04:19:39.213Z,16.38
2023-03-13T04:22:07.022Z,16.39
2023-03-13T04:24:34.520Z,16.37
2023-03-13T04:27:03.721Z,16.38
2023-03-13T04:29:31.108Z,16.36
2023-03-13T04:32:24.539Z,16.35
2023-03-13T04:35:00.689Z,16.32
2023-03-13T04:37:43.770Z,16.31
2023-03-13T04:40:47.214Z,16.31
2023-03-13T04:43:43.387Z,16.31
2023-03-13T04:46:32.809Z,16.33
2023-03-13T04:49:35.343Z,16.31
2023-03-13T04:52:05.556Z,16.29
2023-03-13T04:54:51.263Z,16.31
2023-03-13T04:57:37.000Z,16.30
2023-03-13T05:00:24.237Z,16.30
2023-03-13T05:03:10.262Z,16.31
2023-03-13T05:06:00.099Z,16.31
2023-03-13T05:08:53.349Z,16.30
2023-03-13T05:11:46.448Z,16.28
2023-03-13T05:14:44.880Z,16.26
2023-03-13T05:17:35.467Z,16.26
2023-03-13T05:20:34.782Z,16.22
2023-03-13T05:23:10.680Z,16.20
2023-03-13T05:25:50.359Z,16.20
2023-03-13T05:28:37.529Z,16.21
2023-03-13T05:31:39.704Z,16.20
2023-03-13T05:34:21.219Z,16.19
2023-03-13T05:37:06.894Z,16.17
2023-03-13T05:39:52.240Z,16.14
2023-03-13T05:42:49.108Z,16.15
2023-03-13T05:45:32.466Z,16.13
2023-03-13T05:48:20.422Z,16.11
2023-03-13T05:51:19.539Z,16.09
2023-03-13T05:54:06.545Z,16.07
2023-03-13T05:57:02.670Z,16.04
2023-03-13T06:00:00.594Z,16.05
2023-03-13T06:02:46.475Z,16.08
2023-03-13T06:05:20.693Z,16.08
2023-03-13T06:07:50.399Z,16.11
2023-03-13T06:10:17.587Z,16.15
2023-03-13T06:12:44.837Z,16.24
2023-03-13T06:15:13.592Z,16.44
2023-03-13T06:18:15.793Z,16.66
2023-03-13T06:20:42.743Z,16.85
2023-03-13T06:23:09.749Z,16.97
2023-03-13T06:25:36.776Z,17.28
2023-03-13T06:28:03.672Z,17.66
2023-03-13T06:30:30.656Z,17.98
2023-03-13T06:32:59.115Z,18.40
2023-03-13T06:35:26.178Z,18.88
2023-03-13T06:37:54.264Z,19.26
2023-03-13T06:40:21.247Z,19.58
2023-03-13T06:42:48.127Z,19.94
2023-03-13T06:45:15.131Z,20.44
2023-03-13T06:47:42.356Z,20.86
2023-03-13T06:50:11.163Z,20.80
2023-03-13T06:52:44.042Z,21.14
2023-03-13T06:55:13.839Z,20.93
2023-03-13T06:57:41.197Z,20.79
2023-03-13T07:00:11.577Z,20.69
2023-03-13T07:02:38.562Z,20.44
2023-03-13T07:05:06.125Z,20.32
2023-03-13T07:07:35.829Z,20.31
2023-03-13T07:10:02.881Z,20.30
2023-03-13T07:12:29.932Z,20.17
2023-03-13T07:14:56.916Z,20.09
2023-03-13T07:17:23.871Z,20.04
2023-03-13T07:19:50.910Z,20.07
2023-03-13T07:22:17.847Z,20.15
2023-03-13T07:24:45.009Z,20.24
2023-03-13T07:27:12.058Z,20.27
2023-03-13T07:29:38.985Z,20.43
2023-03-13T07:32:06.529Z,20.83
2023-03-13T07:34:33.596Z,21.02
2023-03-13T07:37:00.489Z,21.22
2023-03-13T07:39:27.558Z,21.36
2023-03-13T07:41:54.525Z,21.38
2023-03-13T07:44:21.515Z,21.39
2023-03-13T07:46:50.238Z,21.38
2023-03-13T07:49:17.195Z,21.30
2023-03-13T07:51:44.736Z,21.21
2023-03-13T07:54:12.276Z,21.23
2023-03-13T07:56:39.573Z,21.13
2023-03-13T07:59:06.976Z,21.01
2023-03-13T08:01:34.035Z,20.88
2023-03-13T08:04:06.483Z,20.77
2023-03-13T08:06:40.230Z,20.67
2023-03-13T08:09:07.259Z,20.56
2023-03-13T08:11:34.197Z,20.56
2023-03-13T08:14:01.184Z,20.66
2023-03-13T08:16:30.944Z,21.05
2023-03-13T08:18:59.347Z,21.90
2023-03-13T08:21:29.108Z,23.07
2023-03-13T08:23:58.219Z,23.99
2023-03-13T08:26:29.684Z,24.69
2023-03-13T08:28:59.267Z,25.59
2023-03-13T08:31:38.194Z,26.34
2023-03-13T08:34:05.345Z,27.89
2023-03-13T08:36:34.926Z,29.08
2023-03-13T08:39:08.294Z,30.32
2023-03-13T08:41:36.897Z,30.38
2023-03-13T08:44:07.983Z,31.25
2023-03-13T08:46:36.524Z,31.85
2023-03-13T08:49:06.114Z,32.66
2023-03-13T08:51:34.189Z,32.94
2023-03-13T08:54:02.360Z,33.79
2023-03-13T08:56:33.119Z,34.27
2023-03-13T08:59:02.198Z,35.13
2023-03-13T09:01:33.196Z,34.17
2023-03-13T09:04:04.010Z,34.32
2023-03-13T09:06:36.013Z,34.90
2023-03-13T09:09:03.672Z,34.95
2023-03-13T09:11:30.602Z,35.63
2023-03-13T09:13:59.451Z,36.27
2023-03-13T09:16:31.372Z,37.20
2023-03-13T09:18:59.402Z,37.86
2023-03-13T09:21:32.259Z,37.92
2023-03-13T09:23:59.405Z,37.69
2023-03-13T09:26:27.910Z,37.49
2023-03-13T09:28:55.490Z,38.10
2023-03-13T09:31:33.178Z,38.46
2023-03-13T09:34:00.841Z,39.08
2023-03-13T09:36:28.289Z,39.37
2023-03-13T09:38:57.963Z,39.86
2023-03-13T09:41:43.216Z,39.95
2023-03-13T09:44:23.432Z,40.19
2023-03-13T09:46:53.502Z,40.08
2023-03-13T09:49:23.327Z,40.25
2023-03-13T09:51:56.606Z,39.88
2023-03-13T09:54:34.899Z,39.87
2023-03-13T09:57:15.578Z,39.90
2023-03-13T09:59:52.993Z,39.53
2023-03-13T10:02:23.726Z,39.39
2023-03-13T10:04:58.452Z,39.46
2023-03-13T10:07:25.374Z,39.36
2023-03-13T10:09:53.757Z,38.26
2023-03-13T10:12:29.029Z,37.51
2023-03-13T10:15:18.051Z,36.73
2023-03-13T10:17:45.356Z,36.52
2023-03-13T10:20:15.447Z,36.45
2023-03-13T10:22:46.617Z,36.12
2023-03-13T10:25:27.521Z,37.19
2023-03-13T10:27:55.602Z,38.06
2023-03-13T10:30:27.272Z,38.92
2023-03-13T10:32:59.506Z,39.45
2023-03-13T10:35:35.083Z,39.39
2023-03-13T10:38:24.035Z,39.37
2023-03-13T10:40:59.244Z,39.73
2023-03-13T10:43:28.845Z,39.83
2023-03-13T10:45:55.831Z,39.75
2023-03-13T10:48:30.579Z,39.19
2023-03-13T10:50:57.884Z,39.16
2023-03-13T10:53:30.651Z,39.42
2023-03-13T10:56:15.210Z,38.21
2023-03-13T10:58:48.436Z,38.23
2023-03-13T11:01:34.212Z,38.19
2023-03-13T11:04:29.715Z,38.25
2023-03-13T11:07:16.479Z,38.22
2023-03-13T11:09:43.968Z,37.79
2023-03-13T11:12:21.058Z,37.60
2023-03-13T11:14:48.222Z,37.33
2023-03-13T11:17:30.664Z,37.15
2023-03-13T11:20:02.873Z,36.40
2023-03-13T11:22:51.124Z,36.37
2023-03-13T11:25:46.888Z,36.14
2023-03-13T11:28:13.677Z,35.95
2023-03-13T11:31:11.541Z,35.55
2023-03-13T11:33:57.637Z,33.71
2023-03-13T11:36:40.800Z,32.86
2023-03-13T11:39:19.956Z,31.91
2023-03-13T11:42:00.940Z,29.62
2023-03-13T11:44:59.447Z,29.60
2023-03-13T11:47:50.959Z,28.74
2023-03-13T11:50:26.746Z,27.95
2023-03-13T11:53:20.161Z,27.42
2023-03-13T11:56:23.145Z,26.66
2023-03-13T11:59:14.888Z,25.39
2023-03-13T12:02:11.510Z,25.33
2023-03-13T12:04:46.912Z,25.19
2023-03-13T12:07:32.806Z,24.45
2023-03-13T12:10:09.880Z,24.83
2023-03-13T12:12:54.001Z,24.16
2023-03-13T12:15:22.937Z,23.75
2023-03-13T12:17:49.769Z,23.91
2023-03-13T12:20:28.146Z,24.18
2023-03-13T12:23:12.466Z,23.69
2023-03-13T12:25:48.114Z,24.05
2023-03-13T12:28:37.405Z,24.31
2023-03-13T12:31:11.746Z,24.30
2023-03-13T12:33:46.673Z,23.79
2023-03-13T12:36:26.742Z,24.01
2023-03-13T12:39:19.894Z,23.44
2023-03-13T12:42:11.673Z,23.80
2023-03-13T12:44:40.259Z,23.82
2023-03-13T12:47:16.333Z,23.94
2023-03-13T12:50:15.070Z,23.40
2023-03-13T12:52:58.256Z,23.58
2023-03-13T12:55:46.473Z,23.48
2023-03-13T12:58:31.631Z,23.53
2023-03-13T13:01:04.547Z,23.36
2023-03-13T13:03:45.065Z,23.33
2023-03-13T13:06:15.418Z,23.24
2023-03-13T13:09:06.954Z,23.16
2023-03-13T13:11:33.911Z,22.23
2023-03-13T13:14:02.076Z,22.62
2023-03-13T13:16:30.662Z,22.78
2023-03-13T13:19:23.035Z,22.75
2023-03-13T13:22:27.517Z,22.54
2023-03-13T13:25:00.573Z,22.71
2023-03-13T13:27:34.648Z,22.76
2023-03-13T13:30:25.520Z,22.84
2023-03-13T13:32:55.649Z,22.73
2023-03-13T13:35:35.680Z,22.73
2023-03-13T13:38:20.619Z,22.56
2023-03-13T13:41:07.567Z,22.30
2023-03-13T13:43:37.193Z,22.14
2023-03-13T13:46:18.968Z,22.34
2023-03-13T13:48:45.935Z,22.45
2023-03-13T13:51:14.208Z,22.55
2023-03-13T13:53:59.901Z,22.46
2023-03-13T13:56:36.320Z,22.48
2023-03-13T13:59:06.289Z,22.31
2023-03-13T14:01:34.442Z,22.42
2023-03-13T14:04:20.206Z,22.14
2023-03-13T14:06:50.894Z,22.25
2023-03-13T14:09:30.851Z,22.21
2023-03-13T14:11:58.109Z,22.31
2023-03-13T14:14:25.180Z,22.37
2023-03-13T14:16:57.141Z,22.49
2023-03-13T14:19:43.417Z,22.37
2023-03-13T14:22:14.714Z,22.01
2023-03-13T14:24:41.640Z,22.07
2023-03-13T14:27:18.798Z,22.16
2023-03-13T14:30:09.234Z,22.12
2023-03-13T14:32:37.509Z,22.07
2023-03-13T14:35:06.527Z,22.03
2023-03-13T14:37:41.306Z,22.03
2023-03-13T14:40:29.846Z,21.73
2023-03-13T14:43:02.573Z,21.96
2023-03-13T14:45:39.907Z,21.90
2023-03-13T14:48:23.666Z,22.06
2023-03-13T14:51:02.356Z,22.22
2023-03-13T14:53:39.536Z,22.29
2023-03-13T14:56:21.014Z,22.32
2023-03-13T14:58:51.681Z,22.43
2023-03-13T15:01:27.267Z,22.48
2023-03-13T15:03:54.345Z,22.05
2023-03-13T15:06:23.987Z,22.08
2023-03-13T15:09:15.592Z,22.10
2023-03-13T15:11:54.841Z,22.14
2023-03-13T15:14:43.729Z,22.10
2023-03-13T15:17:12.789Z,21.99
2023-03-13T15:19:39.682Z,21.98
2023-03-13T15:22:12.449Z,22.00
2023-03-13T15:24:39.333Z,21.99
2023-03-13T15:27:16.265Z,21.97
2023-03-13T15:29:44.009Z,21.96
2023-03-13T15:32:27.762Z,21.89
2023-03-13T15:34:58.691Z,21.85
2023-03-13T15:37:30.397Z,21.86
2023-03-13T15:39:58.513Z,21.85
2023-03-13T15:42:25.783Z,21.87
2023-03-13T15:44:52.774Z,21.89
2023-03-13T15:47:21.961Z,21.88
2023-03-13T15:49:49.023Z,21.87
2023-03-13T15:52:25.406Z,21.89
2023-03-13T15:54:52.330Z,21.87
2023-03-13T15:57:24.010Z,21.77
2023-03-13T15:59:52.585Z,21.62
2023-03-13T16:02:24.254Z,21.64
2023-03-13T16:04:51.693Z,21.60
2023-03-13T16:07:21.216Z,21.54
2023-03-13T16:09:49.077Z,21.49
2023-03-13T16:12:16.190Z,21.50
2023-03-13T16:14:43.096Z,21.49
2023-03-13T16:17:15.017Z,21.54
2023-03-13T16:19:42.886Z,21.44
2023-03-13T16:22:10.353Z,21.49
2023-03-13T16:24:37.316Z,21.50
2023-03-13T16:27:14.457Z,21.46
2023-03-13T16:30:06.436Z,21.42
2023-03-13T16:32:33.554Z,21.33
2023-03-13T16:35:00.536Z,21.24
2023-03-13T16:37:27.489Z,21.21
2023-03-13T16:39:54.359Z,21.14
2023-03-13T16:42:21.355Z,21.13
2023-03-13T16:44:48.270Z,21.01
2023-03-13T16:47:27.660Z,21.05
2023-03-13T16:49:55.380Z,21.03
2023-03-13T16:52:22.325Z,20.97
2023-03-13T16:54:50.175Z,20.97
2023-03-13T16:57:24.232Z,20.95
2023-03-13T16:59:51.606Z,20.95
2023-03-13T17:02:20.788Z,20.94
2023-03-13T17:04:48.521Z,20.95
2023-03-13T17:07:23.484Z,20.81
2023-03-13T17:09:51.580Z,20.77
2023-03-13T17:12:19.572Z,20.73
2023-03-13T17:14:47.304Z,20.59
2023-03-13T17:17:19.290Z,20.54
2023-03-13T17:19:49.710Z,20.54
2023-03-13T17:22:17.940Z,20.58
2023-03-13T17:24:45.005Z,20.61
2023-03-13T17:27:16.889Z,20.61
2023-03-13T17:29:45.023Z,20.66
2023-03-13T17:32:13.697Z,20.54
2023-03-13T17:34:44.482Z,20.49
2023-03-13T17:37:20.667Z,20.45
2023-03-13T17:39:51.549Z,20.48
2023-03-13T17:42:19.320Z,20.48
2023-03-13T17:44:46.315Z,20.43
2023-03-13T17:47:18.237Z,20.36
2023-03-13T17:49:45.921Z,20.40
2023-03-13T17:52:15.152Z,20.31
2023-03-13T17:54:44.113Z,20.32
2023-03-13T17:57:17.506Z,20.24
2023-03-13T17:59:45.236Z,20.20
2023-03-13T18:02:14.513Z,20.18
2023-03-13T18:04:41.870Z,20.17
2023-03-13T18:07:23.120Z,20.17
2023-03-13T18:09:50.175Z,20.14
2023-03-13T18:12:17.358Z,20.12
2023-03-13T18:14:44.524Z,20.01
2023-03-13T18:17:17.658Z,19.93
2023-03-13T18:19:45.447Z,19.88
2023-03-13T18:22:17.905Z,19.85
2023-03-13T18:24:45.340Z,19.70
2023-03-13T18:27:20.303Z,19.80
2023-03-13T18:29:49.247Z,19.51
2023-03-13T18:32:18.464Z,19.41
2023-03-13T18:34:45.876Z,19.19
2023-03-13T18:37:33.660Z,18.73
2023-03-13T18:40:01.081Z,18.43
2023-03-13T18:42:28.118Z,18.34
2023-03-13T18:44:55.231Z,18.27
2023-03-13T18:47:25.177Z,18.23
2023-03-13T18:49:52.173Z,18.31
2023-03-13T18:52:19.104Z,18.22
2023-03-13T18:54:46.046Z,18.21
2023-03-13T18:57:19.324Z,18.10
2023-03-13T18:59:46.819Z,18.12
2023-03-13T19:02:15.998Z,18.11
2023-03-13T19:04:44.275Z,18.15
2023-03-13T19:07:14.937Z,18.07
2023-03-13T19:09:43.949Z,18.03
2023-03-13T19:12:12.414Z,18.00
2023-03-13T19:14:39.469Z,18.11
2023-03-13T19:17:14.633Z,18.25
2023-03-13T19:19:41.638Z,18.35
2023-03-13T19:22:13.582Z,18.43
2023-03-13T19:24:40.660Z,18.49
2023-03-13T19:27:07.794Z,18.50
2023-03-13T19:29:36.619Z,18.44
2023-03-13T19:32:07.755Z,18.50
2023-03-13T19:34:34.699Z,18.38
2023-03-13T19:37:01.731Z,18.48
2023-03-13T19:39:28.844Z,18.49
2023-03-13T19:41:57.712Z,18.54
2023-03-13T19:44:25.569Z,18.58
2023-03-13T19:46:54.700Z,18.56
2023-03-13T19:49:23.336Z,18.57
2023-03-13T19:51:50.294Z,18.59
2023-03-13T19:54:17.211Z,18.56
2023-03-13T19:56:46.826Z,18.50
2023-03-13T19:59:17.584Z,18.57
2023-03-13T20:01:44.977Z,18.53
2023-03-13T20:04:12.795Z,18.54
2023-03-13T20:06:42.923Z,18.50
2023-03-13T20:09:12.525Z,18.46
2023-03-13T20:11:39.506Z,18.46
2023-03-13T20:14:06.759Z,18.38
2023-03-13T20:16:35.177Z,18.43
2023-03-13T20:19:03.061Z,18.44
2023-03-13T20:21:41.210Z,18.45
2023-03-13T20:24:09.488Z,18.46
2023-03-13T20:26:36.408Z,18.46
2023-03-13T20:29:03.440Z,18.48
2023-03-13T20:31:31.660Z,18.53
2023-03-13T20:34:00.037Z,18.46
2023-03-13T20:36:27.690Z,18.48
2023-03-13T20:38:54.619Z,18.45
2023-03-13T20:41:25.229Z,18.49
2023-03-13T20:43:53.292Z,18.45
2023-03-13T20:46:21.064Z,18.38
2023-03-13T20:48:48.714Z,18.43
2023-03-13T20:51:15.869Z,18.39
2023-03-13T20:53:43.099Z,18.42
2023-03-13T20:56:11.003Z,18.39
2023-03-13T20:58:38.774Z,18.40
2023-03-13T21:01:07.778Z,18.39
2023-03-13T21:03:36.015Z,18.39
2023-03-13T21:06:19.142Z,18.35
2023-03-13T21:08:47.062Z,18.38
2023-03-13T21:11:16.684Z,18.41
2023-03-13T21:13:43.824Z,18.45
2023-03-13T21:16:11.044Z,18.45
2023-03-13T21:18:37.977Z,18.45
2023-03-13T21:21:07.221Z,18.39
2023-03-13T21:23:34.916Z,18.30
2023-03-13T21:26:01.898Z,18.34
2023-03-13T21:28:28.880Z,18.40
2023-03-13T21:30:56.874Z,18.40
2023-03-13T21:33:24.220Z,18.37
2023-03-13T21:35:51.684Z,18.28
2023-03-13T21:38:18.839Z,18.24
2023-03-13T21:40:45.759Z,18.28
2023-03-13T21:43:12.800Z,18.21
2023-03-13T21:45:39.720Z,18.10
2023-03-13T21:48:07.025Z,18.05
2023-03-13T21:50:33.995Z,17.97
2023-03-13T21:53:01.189Z,17.91
2023-03-13T21:55:28.156Z,17.92
2023-03-13T21:57:55.172Z,17.94
2023-03-13T22:00:22.428Z,17.86
2023-03-13T22:02:49.756Z,17.86
2023-03-13T22:05:16.812Z,17.78
2023-03-13T22:07:45.384Z,17.73
2023-03-13T22:10:12.335Z,17.73
2023-03-13T22:12:39.351Z,17.80
2023-03-13T22:15:07.168Z,17.95
2023-03-13T22:17:34.165Z,18.12
2023-03-13T22:20:01.194Z,18.31
2023-03-13T22:22:28.101Z,18.47
2023-03-13T22:24:55.028Z,18.60
2023-03-13T22:27:24.207Z,18.67
2023-03-13T22:29:51.354Z,18.79
2023-03-13T22:32:19.070Z,18.87
2023-03-13T22:34:48.327Z,18.94
2023-03-13T22:37:16.073Z,19.03
2023-03-13T22:39:42.989Z,19.18
2023-03-13T22:42:10.013Z,19.27
2023-03-13T22:44:36.936Z,19.35
2023-03-13T22:47:04.632Z,19.44
2023-03-13T22:49:31.719Z,19.50
2023-03-13T22:51:59.503Z,19.55
2023-03-13T22:54:26.894Z,19.58
2023-03-13T22:56:54.290Z,19.65
2023-03-13T22:59:21.295Z,19.65
2023-03-13T23:01:52.021Z,19.66
2023-03-13T23:04:19.019Z,19.67
2023-03-13T23:06:46.047Z,19.68
2023-03-13T23:09:13.107Z,19.69
2023-03-13T23:11:40.166Z,19.69
2023-03-13T23:14:07.686Z,19.69
2023-03-13T23:16:34.718Z,19.72
2023-03-13T23:19:02.828Z,19.73
2023-03-13T23:21:29.806Z,19.72
2023-03-13T23:23:56.972Z,19.71
2023-03-13T23:26:23.991Z,19.71
2023-03-13T23:28:51.033Z,19.70
2023-03-13T23:31:21.115Z,19.71
2023-03-13T23:33:48.792Z,19.67
2023-03-13T23:36:18.697Z,19.67
2023-03-13T23:38:49.999Z,19.61
2023-03-13T23:41:17.430Z,19.56
2023-03-13T23:43:44.567Z,19.54
2023-03-13T23:46:20.181Z,19.53
2023-03-13T23:48:47.123Z,19.48
2023-03-13T23:51:14.277Z,19.42
2023-03-13T23:53:42.692Z,19.38
2023-03-13T23:56:11.006Z,19.35
2023-03-13T23:58:38.396Z,19.27
